createdAt,value
2019-03-30T00:01:15.438Z,87.47
2019-03-30T00:03:49.336Z,84.70
2019-03-30T00:06:23.256Z,81.22
2019-03-30T00:08:56.817Z,76.87
2019-03-30T00:11:30.802Z,63.98
2019-03-30T00:14:05.115Z,66.27
2019-03-30T00:16:38.774Z,71.12
2019-03-30T00:19:14.255Z,79.97
2019-03-30T00:21:48.477Z,66.25
2019-03-30T00:24:22.263Z,70.12
2019-03-30T00:26:55.996Z,45.75
2019-03-30T00:29:30.174Z,49.60
2019-03-30T00:32:03.934Z,47.03
2019-03-30T00:34:39.125Z,51.58
2019-03-30T00:37:14.504Z,56.13
2019-03-30T00:39:48.559Z,48.60
2019-03-30T00:42:23.808Z,50.73
2019-03-30T00:44:57.252Z,56.33
2019-03-30T00:47:31.611Z,47.88
2019-03-30T00:50:05.445Z,66.62
2019-03-30T00:52:40.738Z,56.55
2019-03-30T00:55:14.984Z,47.80
2019-03-30T00:57:49.224Z,53.63
2019-03-30T01:00:22.957Z,51.60
2019-03-30T01:02:57.142Z,49.65
2019-03-30T01:08:04.241Z,38.00
2019-03-30T01:10:39.127Z,38.37
2019-03-30T01:13:12.902Z,36.42
2019-03-30T01:15:46.847Z,36.33
2019-03-30T01:18:21.723Z,36.95
2019-03-30T01:20:55.870Z,31.50
2019-03-30T01:23:30.517Z,33.28
2019-03-30T01:26:04.035Z,191.50
2019-03-30T01:28:37.917Z,57.43
2019-03-30T01:31:12.038Z,37.55
2019-03-30T01:33:45.973Z,33.60
2019-03-30T01:36:20.674Z,26.12
2019-03-30T01:38:55.294Z,29.27
2019-03-30T01:41:29.071Z,26.40
2019-03-30T01:44:02.788Z,29.25
2019-03-30T01:46:36.385Z,26.42
2019-03-30T01:49:10.087Z,26.68
2019-03-30T01:51:44.857Z,28.35
2019-03-30T01:54:18.816Z,30.97
2019-03-30T01:56:55.872Z,31.23
2019-03-30T01:59:30.820Z,31.57
2019-03-30T02:04:37.363Z,27.05
2019-03-30T02:07:11.411Z,32.48
2019-03-30T02:09:45.708Z,34.40
2019-03-30T02:12:20.579Z,33.63
2019-03-30T02:14:55.153Z,34.40
2019-03-30T02:17:29.421Z,29.98
2019-03-30T02:20:03.846Z,26.87
2019-03-30T02:22:38.069Z,31.00
2019-03-30T02:25:12.633Z,30.52
2019-03-30T02:30:37.965Z,29.32
2019-03-30T02:33:13.780Z,30.75
2019-03-30T02:35:49.838Z,32.95
2019-03-30T02:38:24.073Z,33.40
2019-03-30T02:40:58.393Z,30.17
2019-03-30T02:43:32.563Z,34.78
2019-03-30T02:46:06.595Z,35.55
2019-03-30T02:48:40.806Z,26.25
2019-03-30T02:51:16.095Z,32.30
2019-03-30T02:53:50.319Z,26.65
2019-03-30T02:56:24.382Z,25.80
2019-03-30T02:58:58.741Z,26.00
2019-03-30T03:01:34.899Z,28.32
2019-03-30T03:04:08.849Z,30.75
2019-03-30T03:06:43.449Z,32.63
2019-03-30T03:09:18.503Z,32.70
2019-03-30T03:14:25.597Z,28.50
2019-03-30T03:17:01.296Z,25.85
2019-03-30T03:22:09.595Z,30.65
2019-03-30T03:24:44.994Z,28.75
2019-03-30T03:27:22.253Z,30.43
2019-03-30T03:29:57.528Z,28.38
2019-03-30T03:32:31.591Z,29.35
2019-03-30T03:35:05.903Z,29.25
2019-03-30T03:37:45.531Z,31.97
2019-03-30T03:40:17.544Z,32.67
2019-03-30T03:42:51.695Z,31.90
2019-03-30T03:45:26.066Z,31.33
2019-03-30T03:48:01.262Z,30.90
2019-03-30T03:50:45.521Z,23.70
2019-03-30T03:53:20.693Z,27.87
2019-03-30T03:55:55.562Z,26.68
2019-03-30T04:01:04.894Z,24.87
2019-03-30T04:03:43.555Z,33.00
2019-03-30T04:06:19.873Z,48.85
2019-03-30T04:08:57.989Z,30.08
2019-03-30T04:11:33.791Z,41.48
2019-03-30T04:14:08.077Z,28.15
2019-03-30T04:16:41.813Z,23.70
2019-03-30T04:19:15.767Z,21.17
2019-03-30T04:21:49.723Z,30.60
2019-03-30T04:24:23.835Z,24.80
2019-03-30T04:26:57.766Z,24.87
2019-03-30T04:29:31.852Z,26.17
2019-03-30T04:32:06.334Z,22.82
2019-03-30T04:34:40.206Z,25.90
2019-03-30T04:37:14.289Z,20.88
2019-03-30T04:39:58.635Z,21.87
2019-03-30T04:42:35.777Z,29.67
2019-03-30T04:45:11.875Z,27.62
2019-03-30T04:48:05.999Z,26.75
2019-03-30T04:50:42.381Z,26.10
2019-03-30T04:53:17.209Z,29.50
2019-03-30T04:55:52.186Z,26.87
2019-03-30T05:01:02.118Z,25.70
2019-03-30T05:06:10.311Z,23.98
2019-03-30T05:11:54.046Z,29.75
2019-03-30T05:14:31.737Z,26.40
2019-03-30T05:17:06.760Z,30.27
2019-03-30T05:20:05.882Z,24.63
2019-03-30T05:22:52.331Z,23.85
2019-03-30T05:25:31.042Z,25.52
2019-03-30T05:28:05.794Z,30.72
2019-03-30T05:30:57.377Z,25.68
2019-03-30T05:33:51.367Z,22.82
2019-03-30T05:36:27.962Z,22.75
2019-03-30T05:39:02.881Z,28.30
2019-03-30T05:44:11.570Z,28.80
2019-03-30T05:46:50.764Z,25.27
2019-03-30T05:52:27.628Z,27.00
2019-03-30T05:55:03.083Z,27.00
2019-03-30T05:57:39.748Z,26.48
2019-03-30T06:00:16.362Z,24.35
2019-03-30T06:02:51.469Z,29.10
2019-03-30T06:05:26.208Z,25.02
2019-03-30T06:08:02.235Z,24.87
2019-03-30T06:10:38.937Z,29.18
2019-03-30T06:13:15.045Z,30.75
2019-03-30T06:15:50.763Z,32.78
2019-03-30T06:18:25.755Z,26.60
2019-03-30T06:23:34.589Z,28.80
2019-03-30T06:28:44.350Z,24.72
2019-03-30T06:31:22.428Z,30.08
2019-03-30T06:33:59.434Z,25.57
2019-03-30T06:36:36.319Z,27.73
2019-03-30T06:39:13.679Z,27.48
2019-03-30T06:41:52.430Z,28.32
2019-03-30T06:44:32.343Z,25.65
2019-03-30T06:47:07.813Z,29.23
2019-03-30T06:49:43.886Z,30.02
2019-03-30T06:52:19.132Z,28.87
2019-03-30T06:54:55.828Z,30.20
2019-03-30T06:57:31.230Z,31.10
2019-03-30T07:00:06.654Z,27.77
2019-03-30T07:02:41.759Z,27.67
2019-03-30T07:05:16.287Z,29.75
2019-03-30T07:07:50.818Z,27.77
2019-03-30T07:10:26.829Z,28.17
2019-03-30T07:13:02.771Z,34.48
2019-03-30T07:15:42.318Z,31.17
2019-03-30T07:18:17.774Z,28.98
2019-03-30T07:20:53.951Z,30.68
2019-03-30T07:23:30.145Z,25.92
2019-03-30T07:26:04.518Z,33.18
2019-03-30T07:28:42.050Z,31.52
2019-03-30T07:31:17.484Z,29.37
2019-03-30T07:33:53.690Z,26.93
2019-03-30T07:36:30.517Z,31.02
2019-03-30T07:39:05.634Z,29.77
2019-03-30T07:41:41.116Z,30.75
2019-03-30T07:44:15.658Z,30.88
2019-03-30T07:46:54.151Z,27.05
2019-03-30T07:49:30.042Z,28.40
2019-03-30T07:52:06.398Z,28.05
2019-03-30T07:54:42.155Z,26.62
2019-03-30T07:57:17.558Z,27.22
2019-03-30T07:59:52.370Z,30.37
2019-03-30T08:02:27.478Z,29.48
2019-03-30T08:05:02.223Z,27.02
2019-03-30T08:07:40.836Z,27.48
2019-03-30T08:10:15.936Z,25.23
2019-03-30T08:12:50.476Z,25.10
2019-03-30T08:15:25.516Z,32.28
2019-03-30T08:18:03.382Z,31.33
2019-03-30T08:20:37.937Z,28.80
2019-03-30T08:23:13.049Z,30.35
2019-03-30T08:25:47.604Z,32.63
2019-03-30T08:28:22.915Z,27.52
2019-03-30T08:30:58.680Z,28.55
2019-03-30T08:33:35.967Z,30.35
2019-03-30T08:36:12.145Z,36.48
2019-03-30T08:38:47.172Z,31.95
2019-03-30T08:41:24.345Z,28.05
2019-03-30T08:43:58.928Z,26.10
2019-03-30T08:46:34.035Z,30.68
2019-03-30T08:49:09.535Z,29.77
2019-03-30T08:51:46.053Z,32.08
2019-03-30T08:54:20.989Z,34.65
2019-03-30T08:56:57.074Z,29.65
2019-03-30T08:59:32.361Z,27.25
2019-03-30T09:02:07.396Z,32.73
2019-03-30T09:07:15.365Z,31.77
2019-03-30T09:09:50.880Z,30.37
2019-03-30T09:12:25.635Z,34.40
2019-03-30T09:15:01.179Z,29.35
2019-03-30T09:17:37.443Z,30.72
2019-03-30T09:20:12.201Z,30.15
2019-03-30T09:22:47.172Z,30.82
2019-03-30T09:25:22.121Z,32.13
2019-03-30T09:27:57.381Z,28.52
2019-03-30T09:30:32.337Z,33.28
2019-03-30T09:33:06.921Z,31.20
2019-03-30T09:35:41.342Z,35.45
2019-03-30T09:38:16.921Z,31.30
2019-03-30T09:40:52.737Z,26.97
2019-03-30T09:43:27.171Z,29.52
2019-03-30T09:46:02.519Z,32.55
2019-03-30T09:48:37.336Z,70.80
2019-03-30T09:53:45.576Z,37.05
2019-03-30T09:56:21.053Z,33.78
2019-03-30T09:58:54.969Z,29.42
2019-03-30T10:01:30.209Z,33.27
2019-03-30T10:04:04.768Z,34.43
2019-03-30T10:06:39.159Z,31.65
2019-03-30T10:09:14.126Z,32.93
2019-03-30T10:14:31.297Z,37.58
2019-03-30T10:17:07.701Z,74.87
2019-03-30T10:19:53.105Z,48.92
2019-03-30T10:22:21.991Z,38.92
2019-03-30T10:24:58.562Z,40.60
2019-03-30T10:27:34.337Z,44.00
2019-03-30T10:30:10.696Z,45.88
2019-03-30T10:32:46.616Z,50.85
2019-03-30T10:35:22.199Z,224.20
2019-03-30T10:37:57.418Z,112.92
2019-03-30T10:40:34.067Z,58.87
2019-03-30T10:43:08.718Z,116.47
2019-03-30T10:45:43.787Z,91.30
2019-03-30T10:48:18.753Z,88.40
2019-03-30T10:50:54.562Z,60.00
2019-03-30T10:53:31.234Z,83.00
2019-03-30T10:56:05.847Z,46.10
2019-03-30T10:58:41.486Z,43.58
2019-03-30T11:01:15.898Z,47.05
2019-03-30T11:03:50.710Z,43.38
2019-03-30T11:08:58.608Z,30.17
2019-03-30T11:11:34.995Z,47.20
2019-03-30T11:14:09.441Z,54.63
2019-03-30T11:16:44.034Z,49.95
2019-03-30T11:19:18.272Z,48.23
2019-03-30T11:21:53.647Z,47.25
2019-03-30T11:24:28.812Z,41.45
2019-03-30T11:27:04.893Z,36.45
2019-03-30T11:29:39.870Z,44.42
2019-03-30T11:34:47.497Z,47.90
2019-03-30T11:37:22.082Z,38.53
2019-03-30T11:39:58.995Z,41.55
2019-03-30T11:42:33.570Z,38.98
2019-03-30T11:45:09.833Z,39.13
2019-03-30T11:47:44.326Z,40.00
2019-03-30T11:50:21.535Z,42.05
2019-03-30T11:52:57.727Z,41.33
2019-03-30T11:55:33.826Z,43.85
2019-03-30T11:58:10.428Z,39.70
2019-03-30T12:00:45.240Z,40.03
2019-03-30T12:05:58.500Z,40.48
2019-03-30T12:08:33.754Z,42.90
2019-03-30T12:11:08.888Z,39.03
2019-03-30T12:13:46.282Z,39.85
2019-03-30T12:16:21.122Z,47.35
2019-03-30T12:18:59.422Z,43.00
2019-03-30T12:21:45.721Z,46.88
2019-03-30T12:24:23.856Z,44.20
2019-03-30T12:26:59.505Z,46.20
2019-03-30T12:29:36.122Z,40.78
2019-03-30T12:32:18.555Z,44.75
2019-03-30T12:34:56.314Z,46.15
2019-03-30T12:37:32.375Z,39.50
2019-03-30T12:40:08.087Z,44.55
2019-03-30T12:42:42.514Z,42.73
2019-03-30T12:45:19.659Z,43.63
2019-03-30T12:47:53.970Z,37.50
2019-03-30T12:50:30.049Z,35.88
2019-03-30T12:53:08.958Z,49.85
2019-03-30T12:55:49.626Z,43.08
2019-03-30T12:58:22.522Z,44.55
2019-03-30T13:03:31.326Z,42.38
2019-03-30T13:06:07.318Z,39.70
2019-03-30T13:08:43.314Z,37.15
2019-03-30T13:11:17.381Z,43.92
2019-03-30T13:13:53.983Z,41.53
2019-03-30T13:16:28.749Z,41.02
2019-03-30T13:19:08.835Z,47.62
2019-03-30T13:21:52.591Z,44.20
2019-03-30T13:24:22.402Z,40.05
2019-03-30T13:27:01.222Z,43.73
2019-03-30T13:29:43.905Z,43.98
2019-03-30T13:32:21.204Z,42.25
2019-03-30T13:34:55.607Z,50.38
2019-03-30T13:37:30.548Z,42.48
2019-03-30T13:42:39.076Z,40.33
2019-03-30T13:47:48.164Z,38.55
2019-03-30T13:50:26.105Z,46.73
2019-03-30T13:53:01.139Z,45.10
2019-03-30T13:55:37.612Z,49.25
2019-03-30T13:58:15.794Z,43.83
2019-03-30T14:00:55.206Z,41.18
2019-03-30T14:03:36.830Z,61.35
2019-03-30T14:06:14.081Z,42.93
2019-03-30T14:08:50.523Z,41.48
2019-03-30T14:11:27.520Z,53.38
2019-03-30T14:17:14.320Z,53.78
2019-03-30T14:19:49.918Z,56.60
2019-03-30T14:22:26.440Z,55.08
2019-03-30T14:25:02.380Z,55.55
2019-03-30T14:27:40.638Z,54.90
2019-03-30T14:30:18.012Z,57.48
2019-03-30T14:32:53.721Z,60.80
2019-03-30T14:35:37.137Z,48.35
2019-03-30T14:38:14.956Z,53.30
2019-03-30T14:40:49.513Z,58.40
2019-03-30T14:43:25.185Z,57.35
2019-03-30T14:46:02.609Z,57.13
2019-03-30T14:48:36.660Z,54.80
2019-03-30T14:51:12.143Z,57.55
2019-03-30T14:53:57.250Z,50.52
2019-03-30T14:56:44.921Z,46.18
2019-03-30T14:59:10.327Z,44.80
2019-03-30T15:01:47.228Z,39.45
2019-03-30T15:04:22.685Z,39.92
2019-03-30T15:06:59.742Z,44.23
2019-03-30T15:09:36.997Z,50.98
2019-03-30T15:12:13.868Z,49.18
2019-03-30T15:14:49.442Z,48.30
2019-03-30T15:17:28.402Z,47.67
2019-03-30T15:20:11.882Z,45.80
2019-03-30T15:22:52.454Z,45.63
2019-03-30T15:25:31.445Z,39.58
2019-03-30T15:28:12.065Z,45.23
2019-03-30T15:30:50.992Z,42.83
2019-03-30T15:33:29.196Z,38.65
2019-03-30T15:36:05.545Z,43.87
2019-03-30T15:38:48.580Z,46.02
2019-03-30T15:41:23.967Z,39.88
2019-03-30T15:44:03.839Z,39.45
2019-03-30T15:46:41.061Z,42.15
2019-03-30T15:49:17.080Z,44.50
2019-03-30T15:51:54.080Z,39.40
2019-03-30T15:54:37.068Z,36.05
2019-03-30T15:57:14.380Z,39.63
2019-03-30T15:59:49.342Z,45.33
2019-03-30T16:02:26.123Z,46.65
2019-03-30T16:05:02.570Z,38.33
2019-03-30T16:07:44.579Z,43.58
2019-03-30T16:10:22.723Z,53.40
2019-03-30T16:13:00.724Z,46.33
2019-03-30T16:15:44.461Z,57.58
2019-03-30T16:18:19.643Z,46.75
2019-03-30T16:21:03.890Z,50.05
2019-03-30T16:23:39.642Z,52.88
2019-03-30T16:26:42.257Z,51.42
2019-03-30T16:29:19.068Z,51.05
2019-03-30T16:31:55.069Z,55.58
2019-03-30T16:34:35.574Z,53.38
2019-03-30T16:37:11.266Z,51.05
2019-03-30T16:39:47.995Z,48.90
2019-03-30T16:42:26.055Z,48.85
2019-03-30T16:45:02.176Z,50.43
2019-03-30T16:47:40.348Z,52.10
2019-03-30T16:50:17.525Z,49.63
2019-03-30T16:52:54.463Z,59.38
2019-03-30T16:55:32.306Z,56.48
2019-03-30T16:58:07.737Z,58.63
2019-03-30T17:00:56.365Z,53.00
2019-03-30T17:03:29.669Z,54.63
2019-03-30T17:06:05.991Z,49.20
2019-03-30T17:08:42.799Z,49.15
2019-03-30T17:11:20.493Z,51.68
2019-03-30T17:13:57.812Z,50.12
2019-03-30T17:16:34.679Z,51.33
2019-03-30T17:19:22.301Z,61.45
2019-03-30T17:22:01.489Z,58.10
2019-03-30T17:24:43.942Z,54.20
2019-03-30T17:27:23.739Z,50.60
2019-03-30T17:30:00.745Z,47.65
2019-03-30T17:32:40.690Z,53.65
2019-03-30T17:35:17.902Z,53.55
2019-03-30T17:37:52.298Z,48.85
2019-03-30T17:40:29.499Z,51.95
2019-03-30T17:43:07.292Z,56.00
2019-03-30T17:45:44.402Z,54.23
2019-03-30T17:48:26.375Z,56.55
2019-03-30T17:51:01.105Z,54.45
2019-03-30T17:53:39.463Z,56.63
2019-03-30T17:56:15.232Z,50.17
2019-03-30T18:01:22.745Z,51.10
2019-03-30T18:06:30.946Z,45.73
2019-03-30T18:09:07.479Z,54.60
2019-03-30T18:11:41.682Z,53.73
2019-03-30T18:14:16.070Z,51.55
2019-03-30T18:16:51.065Z,53.90
2019-03-30T18:19:29.507Z,61.20
2019-03-30T18:22:06.437Z,54.50
2019-03-30T18:24:42.369Z,51.45
2019-03-30T18:29:51.671Z,51.25
2019-03-30T18:32:26.679Z,53.35
2019-03-30T18:35:02.960Z,50.12
2019-03-30T18:37:38.733Z,49.50
2019-03-30T18:40:14.258Z,61.73
2019-03-30T18:42:48.364Z,56.10
2019-03-30T18:45:31.590Z,51.70
2019-03-30T18:48:16.658Z,47.75
2019-03-30T18:50:50.836Z,49.42
2019-03-30T18:53:26.351Z,51.50
2019-03-30T18:56:00.023Z,51.28
2019-03-30T18:58:41.567Z,48.85
2019-03-30T19:01:11.587Z,48.60
2019-03-30T19:03:46.091Z,48.83
2019-03-30T19:06:20.943Z,47.33
2019-03-30T19:11:28.411Z,47.55
2019-03-30T19:14:02.263Z,48.73
2019-03-30T19:16:35.983Z,51.63
2019-03-30T19:19:11.040Z,50.88
2019-03-30T19:21:44.733Z,49.20
2019-03-30T19:24:18.242Z,53.20
2019-03-30T19:26:52.240Z,51.83
2019-03-30T19:29:26.288Z,50.98
2019-03-30T19:32:00.451Z,43.05
2019-03-30T19:34:34.391Z,47.73
2019-03-30T19:37:08.775Z,47.37
2019-03-30T19:39:42.780Z,55.00
2019-03-30T19:42:16.834Z,57.30
2019-03-30T19:44:51.343Z,50.43
2019-03-30T19:47:24.739Z,48.20
2019-03-30T19:49:58.420Z,50.20
2019-03-30T19:52:39.643Z,47.43
2019-03-30T19:55:09.860Z,57.20
2019-03-30T19:57:43.753Z,53.35
2019-03-30T20:00:18.472Z,50.95
2019-03-30T20:02:52.217Z,53.13
2019-03-30T20:05:25.990Z,45.63
2019-03-30T20:08:11.475Z,55.73
2019-03-30T20:10:35.093Z,50.38
2019-03-30T20:13:10.105Z,52.20
2019-03-30T20:18:17.724Z,51.88
2019-03-30T20:20:52.385Z,48.80
2019-03-30T20:23:26.143Z,50.95
2019-03-30T20:25:59.697Z,50.92
2019-03-30T20:28:33.210Z,54.70
2019-03-30T20:31:07.595Z,53.30
2019-03-30T20:34:01.484Z,53.75
2019-03-30T20:36:35.493Z,52.58
2019-03-30T20:39:10.183Z,57.30
2019-03-30T20:44:17.331Z,50.52
2019-03-30T20:46:51.228Z,41.98
2019-03-30T20:49:24.859Z,57.83
2019-03-30T20:51:58.625Z,52.13
2019-03-30T20:54:32.445Z,52.03
2019-03-30T20:57:06.397Z,51.77
2019-03-30T20:59:40.611Z,50.80
2019-03-30T21:02:14.372Z,51.37
2019-03-30T21:04:48.236Z,54.08
2019-03-30T21:07:22.494Z,55.60
2019-03-30T21:09:56.814Z,55.17
2019-03-30T21:12:30.928Z,52.98
2019-03-30T21:15:05.319Z,49.53
2019-03-30T21:17:40.398Z,51.28
2019-03-30T21:20:13.971Z,48.90
2019-03-30T21:22:47.547Z,50.52
2019-03-30T21:25:21.108Z,58.15
2019-03-30T21:27:54.877Z,59.95
2019-03-30T21:30:29.276Z,52.45
2019-03-30T21:33:03.380Z,49.75
2019-03-30T21:35:37.098Z,54.50
2019-03-30T21:38:11.128Z,48.55
2019-03-30T21:40:44.806Z,50.78
2019-03-30T21:43:19.820Z,52.62
2019-03-30T21:45:54.028Z,53.65
2019-03-30T21:48:27.855Z,55.27
2019-03-30T21:51:02.270Z,52.13
2019-03-30T21:53:36.480Z,62.67
2019-03-30T21:56:10.501Z,54.85
2019-03-30T21:58:44.353Z,61.70
2019-03-30T22:01:18.142Z,58.02
2019-03-30T22:03:51.985Z,54.73
2019-03-30T22:06:25.587Z,54.63
2019-03-30T22:08:59.727Z,57.95
2019-03-30T22:11:34.166Z,52.23
2019-03-30T22:14:08.338Z,54.53
2019-03-30T22:16:42.179Z,56.63
2019-03-30T22:19:16.218Z,55.85
2019-03-30T22:21:50.318Z,57.17
2019-03-30T22:24:24.580Z,56.28
2019-03-30T22:26:58.304Z,56.85
2019-03-30T22:29:31.988Z,51.30
2019-03-30T22:32:05.647Z,57.75
2019-03-30T22:34:40.025Z,53.98
2019-03-30T22:37:13.528Z,55.08
2019-03-30T22:39:48.273Z,54.63
2019-03-30T22:42:21.868Z,56.95
2019-03-30T22:44:55.596Z,58.38
2019-03-30T22:47:29.798Z,60.58
2019-03-30T22:50:03.742Z,56.55
2019-03-30T22:52:37.528Z,63.90
2019-03-30T22:55:11.505Z,52.45
2019-03-30T22:57:45.188Z,64.10
2019-03-30T23:00:23.570Z,67.90
2019-03-30T23:02:58.566Z,64.40
2019-03-30T23:05:32.831Z,57.53
2019-03-30T23:08:06.452Z,59.85
2019-03-30T23:10:39.668Z,64.53
2019-03-30T23:13:13.461Z,72.35
2019-03-30T23:15:48.651Z,70.15
2019-03-30T23:18:22.832Z,67.95
2019-03-30T23:20:56.351Z,61.80
2019-03-30T23:23:30.444Z,66.77
2019-03-30T23:26:04.495Z,67.65
2019-03-30T23:28:38.253Z,66.35
2019-03-30T23:31:12.397Z,55.85
2019-03-30T23:33:46.072Z,55.98
2019-03-30T23:36:20.323Z,66.30
2019-03-30T23:38:54.497Z,57.00
2019-03-30T23:41:28.786Z,52.60
2019-03-30T23:44:02.418Z,57.75
2019-03-30T23:46:36.422Z,51.40
2019-03-30T23:49:10.265Z,51.40
2019-03-30T23:51:44.813Z,55.17
2019-03-30T23:54:19.596Z,52.95
2019-03-30T23:56:54.717Z,48.95
2019-03-30T23:59:28.394Z,50.85
